In Rescue
 
Open Full Screen Window  High Contrast Mode
Wind Gusting 14 knots
05
October 25, 2021 3:08 PM EDT
Weather Information
Wind Direction
  020 °
Wind Speed
  05 kt (6 mph)
Wind Gust
  14 kt (16 mph)
Altimeter
30.04 in
Visibility
10 SM
Temperature
10° C
50° F
Dewpoint
03° C
37° F
Humidity
62%
1hr Rain Fall
00.00 in.
24hr Rain Fall
00.00 in.
Sky Condition
Broken @ 3,000 ft
MVFR

METAR KDRM 251908Z AUTO 02005G14KT 10SM BKN030 10/03 A3004 RMK AO2 T01000029

FAA Disclaimer: The data displayed is for advisory purposes only and is not to be used for flight planning or operations.